EDFH/HHN METAR and TAF weather

Enter ICAO airport designator
Station Type Date Time Source
EDFH METAR 2021/05/14 13:50 UTC NOAA

EDFH 141350Z 23010KT 200V270 9999 SCT036 13/06 Q1008


Station Type Date Time Source
EDFH Decoded METAR 2021/05/14 13:50 UTC NOAA

Hahn, Germany (EDFH) 49-57N 007-16E 498M
May 14, 2021 - 09:50 AM EDT / 2021.05.14 1350 UTC
Wind: from the SW (230 degrees) at 12 MPH (10 KT) (direction variable):0
Visibility: greater than 7 mile(s):0
Sky conditions: partly cloudy
Temperature: 55 F (13 C)
Dew Point: 42 F (6 C)
Relative Humidity: 62%
Pressure (altimeter): 29.77 in. Hg (1008 hPa)
ob: EDFH 141350Z 23010KT 200V270 9999 SCT036 13/06 Q1008
cycle: 14

Station Type Date Time Source
EDFH TAF 2021/05/14 12:27 UTC NOAA

TAF EDFH 141100Z 1412/1512 26007KT 9999 SCT025
TEMPO 1412/1418 SHRA BKN012CB PROB30
TEMPO 1412/1417 TSRA
BECMG 1502/1504 BKN012
TEMPO 1506/1512 SHRA BKN008CB

Example: see airport list